Beckley, WV

4:30 AM EDT on September 20, 2014 (GMT -0400)
Raleigh County Memorial | Change Station
CLOSE
Current Station
Airport
Location: Beckley,
Elevation: 2513 ft
Nearby Weather Stations

Elev 2513 ft 37.79 °N, 81.12 °W | Updated 39 minutes ago

Clear
Clear
59 °F
Feels Like 59 °F
N
8
Wind Variable Wind from SSE

Today
High -- | Low -- °F
--% Chance of Precip.
Yesterday
High -- | Low -- °F
Precip. -- in
7:10 AM 7:24 PM
Waning Crescent, 13% visible
Pressure 30.17 in
Visibility 9.0 miles
Clouds Few 1000 ft
Dew Point 55 °F
Humidity 87%
Rainfall 0.00 in
Snow Depth Not available.
UV 0 out of 12
Pollen 5.10 out of 12
Air Quality Not available.
Flu Activity Not available.
METAR KBKW 200751Z AUTO 15007KT 9SM FEW010 15/13 A3024 RMK AO2 SLP217 T01500128 TSNO

More Conditions Fewer Conditions

Pressure 30.17 in
Visibility 9.0 miles
Clouds Few 1000 ft
Dew Point 55 °F
Humidity 87%
Rainfall 0.00 in
Snow Depth Not available.
UV 0 out of 12
Pollen 5.10 out of 12
Air Quality Not available.
Flu Activity Not available.
METAR KBKW 200751Z AUTO 15007KT 9SM FEW010 15/13 A3024 RMK AO2 SLP217 T01500128 TSNO

More Conditions Fewer Conditions

10-Day Weather Forecast

Almanac

Astronomy

Sep. 20, 2014 Rise Set
Actual Time 7:10 AM EDT 7:24 PM EDT
Civil Twilight 6:44 AM EDT 7:51 PM EDT
Nautical Twilight 6:13 AM EDT 8:21 PM EDT
Astronomical Twilight 5:42 AM EDT 8:52 PM EDT
Moon 3:51 AM EDT 5:25 PM EDT
Length of Visible Light 13h 06m
Length of Day
12h 14m
Tomorrow will be 2m 25s shorter.
Waning Crescent, 13% of the Moon is Illuminated
Today
Waning Crescent
Sep 24
New
Oct 1
First Quarter
Oct 8
Full
Oct 15
Last Quarter

Today's Extremes

State Highs State Lows

Community

WunderPhotos

Upload Photos

1,754,793 photos uploaded!

WunderBlogs® & News

Nearby

Snow Depth

Station Depth Elevation
No new snow has been reported.

Earthquake Activity

City Distance Mag. Time & Date
No recent earthquake activity has been reported nearby.
Minimum magnitude displayed is 2.5.

Coastal Water Temperatures

Place Temperature
No Stations Reporting

Nearby Weather Stations